Time;durP1;ratioP1;P1;durP2;ratioP2;P2;SDS_P1;SDS_P2;PMS_P1;PMS_P2;Temp;Humidity;BMP_temperature;BMP_pressure;BME280_temperature;BME280_humidity;BME280_pressure;Samples;Min_cycle;Max_cycle;Signal;HPM_P1;HPM_P2
2022/05/30 00:01:14;;;;;;;4.85;2.53;;;;;;;11.51;100.00;99645.56;5074544;28;20549;-71
2022/05/30 00:03:43;;;;;;;4.13;2.53;;;;;;;11.50;100.00;99643.88;5074402;28;20370;-72
2022/05/30 00:06:14;;;;;;;5.85;2.78;;;;;;;11.57;100.00;99633.56;5073387;28;20135;-72
2022/05/30 00:08:43;;;;;;;5.13;2.42;;;;;;;11.68;100.00;99633.66;5073832;28;20396;-72
2022/05/30 00:11:14;;;;;;;5.85;2.38;;;;;;;11.60;100.00;99631.53;5074383;28;20049;-72
2022/05/30 00:13:44;;;;;;;5.63;2.53;;;;;;;11.65;100.00;99623.16;5073825;28;20161;-73
2022/05/30 00:16:16;;;;;;;4.40;2.78;;;;;;;11.86;100.00;99623.41;5074130;28;20090;-73
2022/05/30 00:18:46;;;;;;;6.15;2.45;;;;;;;12.02;100.00;99624.81;5073778;28;20051;-73
2022/05/30 00:21:18;;;;;;;4.25;2.42;;;;;;;12.10;100.00;99621.56;5073791;28;20127;-71
2022/05/30 00:23:47;;;;;;;5.03;2.50;;;;;;;11.95;100.00;99623.56;5073975;28;20037;-71
2022/05/30 00:26:16;;;;;;;5.82;2.67;;;;;;;11.90;100.00;99625.75;5074107;28;20120;-71
2022/05/30 00:28:47;;;;;;;4.50;2.67;;;;;;;11.93;100.00;99617.50;5073812;28;20124;-71
2022/05/30 00:31:18;;;;;;;4.72;2.50;;;;;;;11.98;100.00;99618.00;5073722;28;20094;-72
2022/05/30 00:33:48;;;;;;;4.07;2.30;;;;;;;12.06;100.00;99613.88;5072437;28;20048;-71
2022/05/30 00:36:16;;;;;;;5.13;2.70;;;;;;;12.08;100.00;99618.16;5073980;28;20131;-72
2022/05/30 00:38:45;;;;;;;4.80;2.60;;;;;;;12.20;100.00;99611.03;5073480;28;20041;-70
2022/05/30 00:41:13;;;;;;;6.43;2.95;;;;;;;12.24;100.00;99613.31;5073692;28;20068;-72
2022/05/30 00:43:44;;;;;;;6.15;2.45;;;;;;;12.26;100.00;99602.53;5073603;28;20603;-71
2022/05/30 00:46:16;;;;;;;4.95;2.33;;;;;;;12.25;100.00;99592.78;5073516;28;20127;-71
2022/05/30 00:48:48;;;;;;;4.20;2.20;;;;;;;12.38;100.00;99590.03;5073217;28;20123;-71
2022/05/30 00:51:21;;;;;;;4.40;2.25;;;;;;;12.28;100.00;99589.91;5073738;28;20036;-71
2022/05/30 00:53:53;;;;;;;5.43;2.13;;;;;;;12.31;100.00;99584.28;5073361;28;20052;-71
2022/05/30 00:56:23;;;;;;;6.47;2.50;;;;;;;12.24;100.00;99583.06;5073762;28;20079;-72
2022/05/30 00:58:52;;;;;;;5.78;2.17;;;;;;;12.27;99.73;99586.38;5073346;28;20489;-71
2022/05/30 01:01:22;;;;;;;4.60;2.00;;;;;;;12.28;96.88;99587.22;5073207;28;20041;-73
2022/05/30 01:06:41;;;;;;;4.18;2.05;;;;;;;12.30;96.48;99574.56;5073602;28;20371;-74
2022/05/30 01:09:12;;;;;;;3.88;1.88;;;;;;;12.47;92.58;99575.94;5073419;28;20122;-71
2022/05/30 01:11:52;;;;;;;2.65;1.70;;;;;;;12.38;94.00;99577.50;5073253;28;20052;-71
2022/05/30 01:14:22;;;;;;;4.97;2.17;;;;;;;12.44;92.98;99587.69;5073143;28;20068;-72
2022/05/30 01:16:52;;;;;;;4.15;2.13;;;;;;;12.31;95.86;99581.63;5073208;28;20047;-70
2022/05/30 01:19:34;;;;;;;7.18;2.10;;;;;;;12.45;91.80;99573.38;5073621;28;20047;-71
2022/05/30 01:22:17;;;;;;;4.30;2.10;;;;;;;12.25;93.38;99577.59;5073373;28;20036;-71
2022/05/30 01:24:55;;;;;;;3.13;1.85;;;;;;;12.29;92.26;99570.19;5072810;28;20098;-71
2022/05/30 01:27:38;;;;;;;6.13;2.15;;;;;;;12.19;94.42;99561.19;5073335;28;20051;-73
2022/05/30 01:30:12;;;;;;;5.40;2.20;;;;;;;12.27;93.37;99558.78;5073300;28;20075;-74
2022/05/30 01:32:40;;;;;;;6.75;2.28;;;;;;;12.22;95.23;99560.94;5072745;28;20040;-74
2022/05/30 01:35:09;;;;;;;4.32;2.00;;;;;;;12.18;95.28;99570.19;5073167;28;20123;-72
2022/05/30 01:37:37;;;;;;;4.13;2.15;;;;;;;12.09;97.46;99557.53;5072894;28;20048;-73
2022/05/30 01:40:07;;;;;;;5.85;2.28;;;;;;;12.17;97.74;99557.78;5072805;28;20101;-72
2022/05/30 01:42:35;;;;;;;3.90;2.20;;;;;;;12.10;96.76;99561.91;5072783;28;20040;-73
2022/05/30 01:45:04;;;;;;;3.28;2.05;;;;;;;12.10;98.04;99556.56;5072896;28;20094;-73
2022/05/30 01:47:34;;;;;;;4.22;2.40;;;;;;;12.08;98.43;99554.00;5073006;28;20044;-74
2022/05/30 01:50:03;;;;;;;4.15;2.30;;;;;;;12.13;98.73;99561.66;5073012;28;20044;-74
2022/05/30 01:52:33;;;;;;;4.28;2.03;;;;;;;12.11;97.82;99567.13;5072961;28;20481;-74
2022/05/30 01:55:01;;;;;;;3.47;2.10;;;;;;;12.00;96.67;99562.63;5073043;28;20072;-74
2022/05/30 01:57:29;;;;;;;3.83;2.10;;;;;;;12.24;96.41;99564.34;5073039;28;20037;-74
2022/05/30 01:59:57;;;;;;;4.47;2.25;;;;;;;12.06;97.47;99565.78;5072685;28;20079;-74
2022/05/30 02:02:26;;;;;;;4.07;2.20;;;;;;;12.10;97.97;99557.41;5071516;28;20065;-74
2022/05/30 02:04:56;;;;;;;4.15;2.25;;;;;;;12.20;97.00;99552.19;5072620;28;20052;-74
2022/05/30 02:07:25;;;;;;;4.82;2.08;;;;;;;12.09;95.58;99560.22;5076087;28;20473;-73
2022/05/30 02:09:53;;;;;;;6.38;2.28;;;;;;;12.14;98.95;99563.34;5076464;28;20486;-73
2022/05/30 02:12:21;;;;;;;4.65;2.00;;;;;;;12.04;98.52;99560.53;5076349;28;20478;-73
2022/05/30 02:14:49;;;;;;;5.13;2.00;;;;;;;12.14;97.49;99563.34;5076432;28;20428;-74
2022/05/30 02:17:17;;;;;;;3.22;2.20;;;;;;;12.23;95.37;99562.66;5075664;28;20052;-73
2022/05/30 02:19:46;;;;;;;3.70;1.90;;;;;;;12.32;95.24;99557.44;5076314;28;20051;-75
2022/05/30 02:22:18;;;;;;;4.80;2.10;;;;;;;12.28;96.96;99561.31;5076479;28;20041;-74
2022/05/30 02:24:48;;;;;;;7.78;2.42;;;;;;;12.18;98.77;99557.66;5076235;28;20043;-75
2022/05/30 02:27:18;;;;;;;5.82;2.22;;;;;;;12.09;99.49;99563.72;5076510;28;20131;-75
2022/05/30 02:29:47;;;;;;;4.72;2.28;;;;;;;12.01;97.74;99571.47;5075071;28;20135;-74
2022/05/30 02:32:16;;;;;;;4.65;2.30;;;;;;;12.06;97.16;99573.78;5076261;28;20041;-74
2022/05/30 02:37:31;;;;;;;4.38;1.92;;;;;;;12.10;95.71;99575.28;5076224;28;20048;-74
2022/05/30 02:40:00;;;;;;;3.28;1.90;;;;;;;12.13;92.69;99578.53;5075960;28;20068;-74
2022/05/30 02:42:28;;;;;;;3.97;2.00;;;;;;;12.11;94.35;99585.00;5075990;28;20043;-74
2022/05/30 02:44:56;;;;;;;2.50;1.65;;;;;;;12.09;94.01;99576.25;5075523;28;20045;-73
2022/05/30 02:47:24;;;;;;;4.05;2.10;;;;;;;12.12;89.47;99584.03;5075696;28;20127;-74
2022/05/30 02:49:52;;;;;;;4.97;1.60;;;;;;;12.43;82.16;99579.81;5075752;28;20051;-74
2022/05/30 02:52:20;;;;;;;4.28;1.77;;;;;;;12.56;80.64;99581.41;5075907;28;20481;-74
2022/05/30 02:54:50;;;;;;;4.97;1.80;;;;;;;12.55;81.98;99595.75;5075749;28;20052;-74
2022/05/30 02:57:18;;;;;;;5.05;1.88;;;;;;;12.48;84.32;99594.53;5076095;28;20131;-74
2022/05/30 02:59:46;;;;;;;3.92;1.80;;;;;;;12.49;83.80;99595.38;5075567;28;20041;-74
2022/05/30 03:02:14;;;;;;;3.92;1.73;;;;;;;12.44;83.02;99597.56;5075688;28;20041;-72
2022/05/30 03:04:42;;;;;;;2.33;1.52;;;;;;;12.53;81.15;99611.06;5075152;28;20139;-73
2022/05/30 03:07:11;;;;;;;3.20;1.50;;;;;;;12.53;81.48;99608.38;5074532;28;20048;-73
2022/05/30 03:09:39;;;;;;;2.75;1.50;;;;;;;12.74;80.12;99610.34;5073772;28;20048;-85
2022/05/30 03:12:10;;;;;;;4.35;1.50;;;;;;;12.73;79.58;99611.31;5075581;28;20398;-74
2022/05/30 03:14:38;;;;;;;3.30;1.65;;;;;;;12.65;80.12;99613.78;5075600;28;20090;-75
2022/05/30 03:17:06;;;;;;;3.60;1.63;;;;;;;12.65;80.60;99608.41;5074567;28;20040;-74
2022/05/30 03:19:34;;;;;;;4.28;1.75;;;;;;;12.59;80.73;99617.75;5075186;28;20043;-75
2022/05/30 03:22:05;;;;;;;3.92;1.65;;;;;;;12.72;79.93;99615.81;5075357;28;20046;-74
2022/05/30 03:24:33;;;;;;;3.45;1.55;;;;;;;12.69;80.51;99612.53;5074195;28;20055;-74
2022/05/30 03:27:01;;;;;;;2.92;1.65;;;;;;;12.77;79.62;99620.81;5075079;28;20401;-74
2022/05/30 03:29:31;;;;;;;3.97;1.77;;;;;;;12.59;80.88;99617.75;5075153;28;20036;-74
2022/05/30 03:32:00;;;;;;;4.07;1.63;;;;;;;12.53;81.62;99619.09;5073686;28;20567;-75
2022/05/30 03:34:28;;;;;;;3.58;1.80;;;;;;;12.52;82.38;99633.44;5075175;28;20049;-75
2022/05/30 03:36:56;;;;;;;4.43;1.70;;;;;;;12.67;80.43;99635.91;5073611;28;20489;-74
2022/05/30 03:39:25;;;;;;;3.53;2.00;;;;;;;12.68;81.05;99632.25;5075064;28;20131;-74
2022/05/30 03:41:53;;;;;;;3.58;1.50;;;;;;;12.73;80.34;99627.38;5074735;28;20044;-74
2022/05/30 03:44:22;;;;;;;4.25;1.70;;;;;;;12.78;79.86;99635.91;5074615;28;20044;-74
2022/05/30 03:46:51;;;;;;;5.32;1.80;;;;;;;12.66;81.62;99629.69;5074580;28;20048;-75
2022/05/30 03:49:19;;;;;;;3.72;1.83;;;;;;;12.69;80.65;99628.59;5073181;28;20127;-74
2022/05/30 03:51:48;;;;;;;5.22;1.73;;;;;;;12.71;81.96;99627.50;5074487;28;20123;-72
2022/05/30 03:54:16;;;;;;;4.00;1.67;;;;;;;12.76;80.54;99621.81;5074444;28;20456;-72
2022/05/30 03:56:44;;;;;;;3.70;1.73;;;;;;;12.67;80.45;99611.81;5074555;28;20060;-73
2022/05/30 03:59:13;;;;;;;3.58;1.95;;;;;;;12.60;82.35;99612.28;5074743;28;20037;-72
2022/05/30 04:01:41;;;;;;;4.53;1.73;;;;;;;12.68;82.01;99621.53;5074592;28;20036;-73
2022/05/30 04:04:12;;;;;;;3.95;1.90;;;;;;;12.76;81.51;99613.78;5074469;28;20072;-72
2022/05/30 04:06:41;;;;;;;4.90;1.92;;;;;;;12.83;80.76;99621.16;5073286;28;20053;-72
2022/05/30 04:09:09;;;;;;;8.25;2.10;;;;;;;12.79;81.27;99618.88;5074434;28;20044;-71
2022/05/30 04:11:37;;;;;;;3.72;1.63;;;;;;;12.81;81.64;99616.91;5074361;28;20072;-72
2022/05/30 04:14:06;;;;;;;3.80;2.00;;;;;;;12.86;81.70;99626.28;5074007;28;20036;-74
2022/05/30 04:16:34;;;;;;;3.53;1.77;;;;;;;12.77;81.47;99621.66;5074237;28;20076;-75
2022/05/30 04:19:02;;;;;;;3.58;1.98;;;;;;;12.86;81.60;99625.44;5074006;28;20098;-75
2022/05/30 04:21:32;;;;;;;3.38;1.77;;;;;;;12.95;80.91;99622.03;5074144;28;20049;-75
2022/05/30 04:24:00;;;;;;;5.63;2.30;;;;;;;13.08;79.32;99617.38;5073576;28;20444;-74
2022/05/30 04:26:28;;;;;;;3.63;1.92;;;;;;;13.12;79.53;99626.00;5074005;28;20044;-75
2022/05/30 04:28:56;;;;;;;5.18;2.58;;;;;;;13.12;79.42;99632.25;5073378;28;20048;-75
2022/05/30 04:31:24;;;;;;;4.93;2.25;;;;;;;13.12;79.32;99632.25;5073683;28;20067;-74
2022/05/30 04:33:53;;;;;;;3.65;2.22;;;;;;;13.24;80.09;99621.56;5073679;28;20036;-73
2022/05/30 04:36:23;;;;;;;3.65;2.00;;;;;;;13.29;78.37;99627.38;5073778;28;20066;-73
2022/05/30 04:38:53;;;;;;;5.32;2.15;;;;;;;13.26;79.46;99627.63;5072533;28;20057;-73
2022/05/30 04:41:21;;;;;;;4.32;1.80;;;;;;;13.41;78.33;99637.97;5074312;28;20094;-73
2022/05/30 04:43:49;;;;;;;5.50;2.33;;;;;;;13.55;77.52;99636.81;5073530;28;20051;-74
2022/05/30 04:46:20;;;;;;;7.43;2.15;;;;;;;13.64;76.83;99644.09;5073614;28;20051;-73
2022/05/30 04:48:49;;;;;;;5.68;2.15;;;;;;;13.74;77.38;99658.44;5073156;28;20093;-73
2022/05/30 04:51:17;;;;;;;5.78;2.10;;;;;;;13.92;76.99;99655.22;5073217;28;20040;-73
2022/05/30 04:53:45;;;;;;;4.68;2.15;;;;;;;13.88;76.62;99662.66;5073513;28;20048;-86
2022/05/30 04:56:17;;;;;;;5.15;2.05;;;;;;;14.11;75.42;99663.44;5073465;28;20492;-72
2022/05/30 04:58:48;;;;;;;4.78;2.00;;;;;;;14.14;76.62;99665.84;5073332;28;20393;-79
2022/05/30 05:01:17;;;;;;;5.55;2.20;;;;;;;14.20;75.91;99661.81;5073557;28;20064;-72
2022/05/30 05:03:46;;;;;;;7.82;2.38;;;;;;;14.48;73.23;99652.28;5073055;28;20041;-75
2022/05/30 05:06:18;;;;;;;6.78;2.65;;;;;;;14.69;74.46;99663.84;5073450;28;20083;-75
2022/05/30 05:08:55;;;;;;;6.10;2.40;;;;;;;14.42;74.51;99648.25;5073011;28;20044;-78
2022/05/30 05:11:27;;;;;;;3.45;1.85;;;;;;;14.65;71.36;99651.66;5073389;28;20064;-72
2022/05/30 05:13:57;;;;;;;3.83;2.03;;;;;;;14.82;72.01;99666.31;5073045;28;20051;-73
2022/05/30 05:16:28;;;;;;;6.00;2.28;;;;;;;14.82;70.58;99675.22;5073247;28;20049;-72
2022/05/30 05:18:56;;;;;;;4.72;2.67;;;;;;;14.94;69.56;99683.19;5072834;28;20040;-72
2022/05/30 05:21:27;;;;;;;6.35;2.20;;;;;;;15.20;67.71;99664.78;5073132;28;20045;-70
2022/05/30 05:23:58;;;;;;;4.93;2.30;;;;;;;15.83;66.97;99668.09;5072960;28;20055;-70
2022/05/30 05:26:28;;;;;;;7.72;2.88;;;;;;;16.59;63.56;99663.66;5073126;28;20051;-70
2022/05/30 05:28:56;;;;;;;4.25;2.10;;;;;;;16.55;62.38;99673.03;5072015;28;20080;-72
2022/05/30 05:31:30;;;;;;;5.15;2.55;;;;;;;16.50;60.91;99670.78;5073086;28;20391;-70
2022/05/30 05:33:58;;;;;;;;;;;;;;;16.50;63.05;99676.16;5073423;28;20090;-73
2022/05/30 05:36:29;;;;;;;4.45;2.10;;;;;;;16.64;61.23;99688.31;5072878;28;19942;-74
2022/05/30 05:38:57;;;;;;;6.18;2.45;;;;;;;16.30;62.69;99690.59;5072314;28;20440;-72
2022/05/30 05:41:27;;;;;;;4.68;2.20;;;;;;;16.86;60.99;99687.16;5073392;28;20405;-73
2022/05/30 05:43:56;;;;;;;6.68;2.38;;;;;;;17.34;57.83;99676.19;5076746;28;20128;-73
2022/05/30 05:46:29;;;;;;;5.45;2.22;;;;;;;17.93;56.65;99677.56;5076776;28;20047;-72
2022/05/30 05:49:00;;;;;;;;;;;;;;;20.09;50.08;99676.69;5076924;28;20050;-73
2022/05/30 05:51:28;;;;;;;4.60;2.17;;;;;;;20.19;48.01;99680.09;5076779;28;19974;-72
2022/05/30 05:53:57;;;;;;;4.70;2.00;;;;;;;21.36;44.75;99676.94;5076739;28;20059;-73
2022/05/30 05:56:29;;;;;;;5.25;2.17;;;;;;;20.69;45.81;99677.25;5076932;28;20052;-73
2022/05/30 05:59:04;;;;;;;6.88;2.22;;;;;;;20.47;47.02;99683.34;5076248;28;20512;-73
2022/05/30 06:01:34;;;;;;;5.88;2.17;;;;;;;18.31;52.19;99687.19;5076453;28;20048;-73
2022/05/30 06:04:06;;;;;;;4.43;2.30;;;;;;;17.88;55.09;99690.69;5076212;28;20051;-72
2022/05/30 06:06:37;;;;;;;4.25;2.10;;;;;;;17.74;55.16;99689.34;5076555;28;20047;-72
2022/05/30 06:09:07;;;;;;;5.78;2.22;;;;;;;19.87;50.28;99689.81;5075131;28;20055;-74
2022/05/30 06:11:36;;;;;;;5.00;2.10;;;;;;;19.39;49.22;99691.31;5076523;28;20044;-70
2022/05/30 06:14:05;;;;;;;5.22;1.70;;;;;;;18.75;49.40;99702.63;5076170;28;20051;-70
2022/05/30 06:16:38;;;;;;;5.45;2.00;;;;;;;19.03;49.50;99701.47;5076441;28;20041;-69
2022/05/30 06:19:07;;;;;;;4.60;1.98;;;;;;;18.69;51.40;99701.38;5075812;28;20063;-70
2022/05/30 06:21:35;;;;;;;4.07;1.92;;;;;;;18.77;50.71;99698.75;5076209;28;20350;-69
2022/05/30 06:24:05;;;;;;;6.40;2.05;;;;;;;18.52;51.84;99696.81;5075965;28;20119;-68
2022/05/30 06:26:33;;;;;;;3.92;1.90;;;;;;;18.37;52.79;99695.69;5074751;28;20135;-70
2022/05/30 06:29:03;;;;;;;4.82;1.98;;;;;;;18.55;51.33;99696.53;5075641;28;20049;-69
2022/05/30 06:31:33;;;;;;;4.05;1.60;;;;;;;18.10;50.62;99688.53;5075877;28;20120;-69
2022/05/30 06:34:02;;;;;;;6.18;1.92;;;;;;;18.14;50.33;99696.16;5075800;28;20169;-70
2022/05/30 06:36:31;;;;;;;6.15;2.10;;;;;;;17.61;52.18;99699.59;5076038;28;20043;-69
2022/05/30 06:39:02;;;;;;;3.97;1.75;;;;;;;18.18;51.83;99704.81;5075247;28;20051;-70
2022/05/30 06:41:32;;;;;;;4.18;1.92;;;;;;;20.37;44.45;99705.16;5074774;28;20098;-70
2022/05/30 06:44:04;;;;;;;4.25;1.90;;;;;;;20.16;46.28;99702.06;5075678;28;20508;-69
2022/05/30 06:46:35;;;;;;;4.47;1.80;;;;;;;19.63;47.48;99704.16;5076196;28;20044;-68
2022/05/30 06:49:08;;;;;;;4.97;1.60;;;;;;;20.26;44.49;99708.16;5074423;28;20468;-69
2022/05/30 06:51:37;;;;;;;3.88;1.73;;;;;;;18.86;47.34;99714.00;5074033;28;20056;-69
2022/05/30 06:54:07;;;;;;;3.20;1.60;;;;;;;17.81;50.80;99716.56;5075504;28;20048;-68
2022/05/30 06:56:38;;;;;;;3.90;1.60;;;;;;;17.62;52.18;99722.88;5075710;28;20618;-68
2022/05/30 06:59:08;;;;;;;3.92;1.80;;;;;;;18.84;48.67;99709.78;5074230;28;20057;-68
2022/05/30 07:01:37;;;;;;;4.20;1.80;;;;;;;19.72;46.81;99721.25;5075609;28;20135;-68
2022/05/30 07:04:05;;;;;;;5.03;2.05;;;;;;;20.34;41.88;99716.31;5075288;28;20048;-69
2022/05/30 07:06:38;;;;;;;4.72;1.70;;;;;;;20.22;46.05;99723.06;5075373;28;20045;-69
2022/05/30 07:09:06;;;;;;;3.13;1.65;;;;;;;19.05;47.31;99728.31;5075138;28;20078;-69
2022/05/30 07:11:38;;;;;;;5.55;1.88;;;;;;;19.61;46.02;99718.84;5075473;28;20055;-68
2022/05/30 07:14:09;;;;;;;5.43;2.00;;;;;;;19.35;46.21;99726.97;5073996;28;20079;-69
2022/05/30 07:16:40;;;;;;;4.65;1.88;;;;;;;19.83;43.35;99718.25;5075460;28;20064;-68
2022/05/30 07:19:09;;;;;;;4.15;1.65;;;;;;;19.84;43.08;99719.94;5074914;28;20089;-70
2022/05/30 07:21:38;;;;;;;5.35;2.15;;;;;;;20.14;44.46;99720.34;5074902;28;20044;-68
2022/05/30 07:24:11;;;;;;;5.80;1.65;;;;;;;20.40;43.35;99723.78;5075018;28;20045;-68
2022/05/30 07:26:40;;;;;;;4.32;1.77;;;;;;;19.48;45.05;99715.69;5073678;28;20048;-68
2022/05/30 07:29:09;;;;;;;4.70;2.22;;;;;;;20.15;45.71;99708.50;5073132;28;20053;-69
2022/05/30 07:31:39;;;;;;;4.05;1.80;;;;;;;19.99;47.79;99706.63;5075032;28;20037;-69
2022/05/30 07:34:07;;;;;;;4.53;1.70;;;;;;;19.90;46.39;99703.06;5075169;28;20047;-69
2022/05/30 07:36:35;;;;;;;3.65;1.85;;;;;;;19.15;47.33;99707.44;5075181;28;20040;-69
2022/05/30 07:39:04;;;;;;;4.80;1.70;;;;;;;18.56;46.93;99711.72;5074603;28;20067;-69
2022/05/30 07:41:35;;;;;;;4.03;1.80;;;;;;;17.88;49.11;99716.81;5074806;28;20049;-69
2022/05/30 07:44:04;;;;;;;4.35;1.65;;;;;;;18.78;48.22;99716.66;5074405;28;20044;-69
2022/05/30 07:46:32;;;;;;;3.63;1.90;;;;;;;19.31;47.23;99721.06;5074696;28;20040;-69
2022/05/30 07:49:03;;;;;;;5.22;2.10;;;;;;;19.31;47.14;99718.34;5074427;28;20040;-69
2022/05/30 07:51:31;;;;;;;3.30;1.73;;;;;;;19.63;45.90;99716.81;5074833;28;20460;-69
2022/05/30 07:53:59;;;;;;;4.75;2.05;;;;;;;19.33;46.21;99719.03;5074348;28;20048;-69
2022/05/30 07:56:28;;;;;;;6.63;1.70;;;;;;;19.62;45.19;99720.53;5074059;28;20520;-69
2022/05/30 07:58:56;;;;;;;5.53;2.00;;;;;;;19.95;45.26;99716.91;5074499;28;20543;-69
2022/05/30 08:01:27;;;;;;;3.85;1.60;;;;;;;19.59;46.89;99716.31;5073910;28;20147;-69
2022/05/30 08:03:55;;;;;;;3.70;1.70;;;;;;;19.81;45.89;99719.44;5073822;28;20040;-69
2022/05/30 08:06:30;;;;;;;4.55;1.80;;;;;;;20.30;43.97;99717.66;5073861;28;20044;-69
2022/05/30 08:08:58;;;;;;;4.90;1.90;;;;;;;20.44;43.89;99724.31;5074023;28;20094;-69
2022/05/30 08:11:26;;;;;;;3.83;1.73;;;;;;;19.88;43.14;99718.63;5074075;28;20055;-69
2022/05/30 08:13:55;;;;;;;5.50;1.40;;;;;;;19.40;44.46;99721.94;5073863;28;20047;-68
2022/05/30 08:16:26;;;;;;;3.60;1.80;;;;;;;19.81;43.42;99728.41;5073961;28;20044;-69
2022/05/30 08:19:14;;;;;;;5.60;1.70;;;;;;;19.89;41.69;99733.84;5072547;28;20067;-69
2022/05/30 08:22:09;;;;;;;3.15;1.48;;;;;;;19.74;42.07;99738.16;5072581;28;20049;-69
2022/05/30 08:24:39;;;;;;;3.15;1.38;;;;;;;19.88;40.65;99734.84;5074104;28;20040;-69
2022/05/30 08:27:08;;;;;;;3.05;1.50;;;;;;;20.16;40.91;99731.84;5073855;28;20075;-69
2022/05/30 08:29:36;;;;;;;4.32;1.30;;;;;;;19.21;43.19;99743.81;5072577;28;20143;-69
2022/05/30 08:32:06;;;;;;;3.83;1.50;;;;;;;19.36;43.14;99753.84;5073689;28;20106;-69
2022/05/30 08:34:35;;;;;;;5.60;1.73;;;;;;;19.90;42.30;99740.94;5072707;28;20064;-69
2022/05/30 08:37:06;;;;;;;4.70;1.77;;;;;;;19.44;42.89;99753.91;5073499;28;20067;-69
2022/05/30 08:42:29;;;;;;;6.95;1.98;;;;;;;19.60;44.22;99760.44;5073534;28;20044;-69
2022/05/30 08:44:58;;;;;;;5.68;1.65;;;;;;;20.22;43.44;99752.84;5073599;28;20124;-68
2022/05/30 08:47:45;;;;;;;3.42;1.67;;;;;;;20.58;42.02;99746.16;5073391;28;20375;-69
2022/05/30 08:50:22;;;;;;;4.38;1.63;;;;;;;20.70;42.05;99729.56;5073276;28;20047;-68
2022/05/30 08:53:03;;;;;;;5.80;1.90;;;;;;;21.12;41.20;99726.63;5073423;28;20044;-70
2022/05/30 08:55:44;;;;;;;5.88;1.73;;;;;;;21.30;41.41;99730.00;5071933;28;20114;-69
2022/05/30 08:58:27;;;;;;;4.22;1.55;;;;;;;21.35;39.32;99733.06;5071815;28;20053;-70
2022/05/30 09:01:00;;;;;;;4.97;1.70;;;;;;;21.04;42.07;99732.94;5073433;28;20047;-70
2022/05/30 09:03:35;;;;;;;3.72;1.80;;;;;;;20.27;43.08;99737.81;5073487;28;20037;-70
2022/05/30 09:06:09;;;;;;;4.97;1.85;;;;;;;20.12;44.54;99742.16;5073370;28;20086;-70
2022/05/30 09:08:52;;;;;;;4.75;1.60;;;;;;;19.95;44.72;99754.81;5073391;28;20060;-70
2022/05/30 09:11:30;;;;;;;4.35;1.80;;;;;;;20.46;42.39;99761.06;5073078;28;20044;-70
2022/05/30 09:14:04;;;;;;;5.50;1.90;;;;;;;20.64;43.06;99760.03;5072084;28;20070;-70
2022/05/30 09:16:37;;;;;;;6.90;1.92;;;;;;;20.73;42.52;99756.31;5073068;28;20048;-70
2022/05/30 09:19:08;;;;;;;;;;;;;;;21.35;41.86;99753.91;5073146;28;20123;-70
2022/05/30 09:21:37;;;;;;;3.75;1.70;;;;;;;21.36;41.42;99750.19;5073280;28;20326;-69
2022/05/30 09:24:08;;;;;;;4.28;1.73;;;;;;;21.53;41.19;99762.69;5088450;28;20052;-71
2022/05/30 09:26:39;;;;;;;6.00;1.80;;;;;;;21.34;41.46;99757.66;5073336;28;20413;-69
2022/05/30 09:29:13;;;;;;;5.78;2.00;;;;;;;21.65;39.97;99750.41;5071623;28;20135;-70
2022/05/30 09:31:57;;;;;;;4.10;1.70;;;;;;;21.75;39.16;99752.09;5073009;28;20044;-70
2022/05/30 09:34:31;;;;;;;3.30;1.60;;;;;;;21.15;41.27;99758.84;5072916;28;20123;-69
2022/05/30 09:36:59;;;;;;;3.97;1.80;;;;;;;21.02;41.02;99753.94;5073106;28;20508;-69
2022/05/30 09:39:29;;;;;;;4.20;1.70;;;;;;;20.63;42.27;99755.63;5072851;28;20139;-70
2022/05/30 09:42:01;;;;;;;4.45;1.60;;;;;;;20.18;43.01;99767.75;5072947;28;20467;-69
2022/05/30 09:44:41;;;;;;;3.10;1.70;;;;;;;20.19;43.55;99754.03;5071384;28;20481;-70
2022/05/30 09:47:16;;;;;;;4.57;1.58;;;;;;;20.25;42.73;99749.81;5072340;28;20289;-70
2022/05/30 09:49:46;;;;;;;3.58;1.52;;;;;;;20.15;43.22;99768.06;5072952;28;20086;-69
2022/05/30 09:52:30;;;;;;;4.13;1.50;;;;;;;20.54;43.05;99766.47;5072526;28;20063;-70
2022/05/30 09:55:01;;;;;;;6.97;1.85;;;;;;;20.37;43.91;99770.16;5072714;28;20127;-69
2022/05/30 09:57:35;;;;;;;5.20;2.00;;;;;;;20.61;43.57;99765.81;5072495;28;20044;-70
2022/05/30 10:00:10;;;;;;;4.78;2.05;;;;;;;20.53;42.83;99772.91;5072799;28;20055;-69
2022/05/30 10:02:41;;;;;;;7.13;1.80;;;;;;;20.70;44.08;99767.50;5072728;28;20052;-70
2022/05/30 10:05:27;;;;;;;5.75;1.80;;;;;;;20.88;42.83;99778.19;5072442;28;20480;-70
2022/05/30 10:07:57;;;;;;;7.13;2.22;;;;;;;20.42;43.17;99778.63;5072578;28;20098;-69
2022/05/30 10:10:30;;;;;;;3.80;1.80;;;;;;;20.16;43.52;99777.88;5072652;28;20041;-69
2022/05/30 10:12:59;;;;;;;;;;;;;;;20.51;42.70;99783.06;5072894;28;20044;-69
2022/05/30 10:15:30;;;;;;;3.25;1.75;;;;;;;20.51;43.17;99788.50;5070951;28;19946;-69
2022/05/30 10:18:24;;;;;;;6.00;1.70;;;;;;;20.54;43.99;99781.88;5072411;28;20044;-69
2022/05/30 10:21:04;;;;;;;3.97;1.90;;;;;;;20.70;44.33;99781.91;5072456;28;20062;-69
2022/05/30 10:29:42;;;;;;;3.35;1.90;;;;;;;20.43;43.81;99780.34;5076057;28;20044;-70
2022/05/30 10:32:18;;;;;;;3.83;1.92;;;;;;;20.45;45.66;99778.31;5076115;28;20123;-71
2022/05/30 10:35:03;;;;;;;4.72;1.75;;;;;;;20.39;44.59;99788.94;5075023;28;20481;-69
2022/05/30 10:37:51;;;;;;;2.88;1.65;;;;;;;20.85;43.41;99784.81;5075973;28;20044;-70
2022/05/30 10:40:30;;;;;;;4.53;1.95;;;;;;;20.84;41.54;99791.22;5075595;28;20106;-70
2022/05/30 10:43:06;;;;;;;2.60;1.60;;;;;;;20.99;42.56;99786.81;5076108;28;20124;-69
2022/05/30 10:45:45;;;;;;;2.78;1.55;;;;;;;20.99;42.59;99797.66;5074776;28;20045;-69
2022/05/30 10:48:22;;;;;;;4.90;1.60;;;;;;;20.97;42.03;99793.44;5074366;28;20053;-70
2022/05/30 10:50:57;;;;;;;5.53;1.80;;;;;;;20.69;42.92;99798.34;5074574;28;20482;-70
2022/05/30 10:53:33;;;;;;;4.93;1.90;;;;;;;20.62;42.56;99800.00;5074859;28;20043;-71
2022/05/30 10:56:13;;;;;;;4.18;1.85;;;;;;;20.60;43.57;99802.06;5074938;28;20049;-71
2022/05/30 10:58:49;;;;;;;3.22;1.80;;;;;;;20.27;42.12;99801.97;5075998;28;20474;-70
2022/05/30 11:01:31;;;;;;;6.32;1.88;;;;;;;20.14;43.03;99785.31;5075548;28;20117;-71
2022/05/30 11:04:10;;;;;;;6.68;1.73;;;;;;;20.26;43.44;99787.53;5074409;28;20052;-70
2022/05/30 11:06:42;;;;;;;4.13;1.80;;;;;;;20.46;43.62;99785.44;5075548;28;20581;-70
2022/05/30 11:09:19;;;;;;;4.38;1.83;;;;;;;20.28;43.98;99795.53;5075617;28;20047;-70
2022/05/30 11:11:54;;;;;;;4.10;1.52;;;;;;;20.58;42.66;99794.94;5075685;28;20047;-70
2022/05/30 11:14:32;;;;;;;7.15;1.83;;;;;;;20.55;42.73;99816.94;5073979;28;20045;-70
2022/05/30 11:17:10;;;;;;;3.92;1.55;;;;;;;20.41;43.56;99814.84;5075468;28;20049;-70
2022/05/30 11:19:54;;;;;;;4.70;1.60;;;;;;;20.28;42.83;99825.31;5074407;28;20063;-70
2022/05/30 11:22:36;;;;;;;4.20;1.67;;;;;;;20.20;42.98;99823.44;5075060;28;20044;-70
2022/05/30 11:25:07;;;;;;;3.92;1.67;;;;;;;20.13;42.53;99821.53;5075318;28;20044;-70
2022/05/30 11:27:39;;;;;;;3.33;1.70;;;;;;;20.15;42.71;99819.50;5074993;28;20040;-70
2022/05/30 11:30:42;;;;;;;3.70;1.50;;;;;;;19.80;42.89;99826.81;5075063;28;20091;-70
2022/05/30 11:33:48;;;;;;;3.08;1.73;;;;;;;19.45;44.45;99825.91;5075318;28;20312;-70
2022/05/30 11:37:05;;;;;;;4.85;1.67;;;;;;;19.61;44.17;99835.19;5068585;28;20052;-70
2022/05/30 11:39:51;;;;;;;3.95;1.90;;;;;;;19.66;43.14;99832.81;5014547;28;20132;-70
2022/05/30 11:42:32;;;;;;;4.18;1.60;;;;;;;19.59;43.82;99826.34;5070459;28;20139;-70
2022/05/30 11:45:07;;;;;;;3.75;1.80;;;;;;;19.67;44.60;99826.41;5073866;28;20146;-70
2022/05/30 11:47:51;;;;;;;3.45;1.60;;;;;;;19.56;44.07;99826.69;5074627;28;20090;-70
2022/05/30 11:50:32;;;;;;;3.58;1.52;;;;;;;19.49;44.83;99822.88;5074645;28;20405;-70
2022/05/30 11:53:22;;;;;;;4.25;1.65;;;;;;;19.80;44.17;99826.81;5073288;28;20064;-70
2022/05/30 11:55:58;;;;;;;2.67;1.63;;;;;;;19.87;43.62;99824.31;5074449;28;20057;-70
2022/05/30 11:58:37;;;;;;;2.92;1.40;;;;;;;19.89;43.08;99816.88;5073187;28;20049;-71
2022/05/30 12:01:07;;;;;;;5.43;1.80;;;;;;;19.79;44.01;99813.47;5073396;28;20045;-70
2022/05/30 12:04:00;;;;;;;5.85;2.10;;;;;;;19.84;43.66;99814.66;5073152;28;20060;-70
2022/05/30 12:06:58;;;;;;;6.03;1.83;;;;;;;20.08;43.63;99816.63;5073960;28;20041;-71
2022/05/30 12:09:52;;;;;;;3.40;1.80;;;;;;;20.30;42.63;99817.88;5072975;28;20131;-71
2022/05/30 12:12:33;;;;;;;4.35;1.80;;;;;;;20.15;44.22;99819.50;5073947;28;20051;-71